createdAt,value
2019-02-04T00:01:12.642Z,99166.50
2019-02-04T00:03:47.227Z,99176.90
2019-02-04T00:06:20.337Z,99169.20
2019-02-04T00:08:53.827Z,99171.97
2019-02-04T00:11:25.721Z,99174.31
2019-02-04T00:13:57.578Z,99173.56
2019-02-04T00:16:40.631Z,99176.94
2019-02-04T00:19:06.618Z,99180.05
2019-02-04T00:21:38.488Z,99177.42
2019-02-04T00:24:10.329Z,99181.72
2019-02-04T00:26:51.665Z,99182.17
2019-02-04T00:29:24.079Z,99181.00
2019-02-04T00:31:57.015Z,99190.89
2019-02-04T00:34:28.859Z,99188.88
2019-02-04T00:37:00.683Z,99194.80
2019-02-04T00:39:32.537Z,99192.19
2019-02-04T00:42:04.399Z,99189.15
2019-02-04T00:44:36.219Z,99198.17
2019-02-04T00:47:08.071Z,99196.39
2019-02-04T00:49:39.902Z,99191.62
2019-02-04T00:52:11.879Z,99193.33
2019-02-04T00:54:45.775Z,99196.81
2019-02-04T00:57:17.641Z,99197.69
2019-02-04T00:59:53.995Z,99202.05
2019-02-04T01:02:25.850Z,99200.72
2019-02-04T01:04:59.793Z,99197.27
2019-02-04T01:07:34.482Z,99201.25
2019-02-04T01:10:06.869Z,99198.25
2019-02-04T01:12:39.177Z,99205.91
2019-02-04T01:15:11.047Z,99213.77
2019-02-04T01:17:45.886Z,99214.67
2019-02-04T01:20:22.109Z,99220.08
2019-02-04T01:22:54.222Z,99220.64
2019-02-04T01:25:29.695Z,99216.87
2019-02-04T01:28:03.834Z,99224.54
2019-02-04T01:30:35.622Z,99224.99
2019-02-04T01:33:09.949Z,99231.13
2019-02-04T01:35:42.907Z,99232.55
2019-02-04T01:38:17.002Z,99235.68
2019-02-04T01:40:48.832Z,99235.71
2019-02-04T01:43:20.684Z,99240.87
2019-02-04T01:45:52.695Z,99243.06
2019-02-04T01:48:24.515Z,99240.16
2019-02-04T01:50:57.441Z,99247.13
2019-02-04T01:53:32.049Z,99244.67
2019-02-04T01:56:03.886Z,99248.12
2019-02-04T01:58:35.722Z,99247.22
2019-02-04T02:01:07.777Z,99261.84
2019-02-04T02:03:39.632Z,99259.59
2019-02-04T02:06:11.541Z,99255.63
2019-02-04T02:08:43.723Z,99268.77
2019-02-04T02:11:15.723Z,99260.62
2019-02-04T02:13:47.607Z,99263.13
2019-02-04T02:16:19.454Z,99257.55
2019-02-04T02:18:51.303Z,99261.00
2019-02-04T02:21:25.486Z,99265.29
2019-02-04T02:23:57.340Z,99261.00
2019-02-04T02:26:29.229Z,99263.13
2019-02-04T02:29:01.063Z,99266.61
2019-02-04T02:31:33.326Z,99264.88
2019-02-04T02:34:07.361Z,99266.20
2019-02-04T02:36:40.177Z,99265.48
2019-02-04T02:39:12.009Z,99269.45
2019-02-04T02:41:45.607Z,99268.28
2019-02-04T02:44:17.441Z,99272.28
2019-02-04T02:46:49.320Z,99271.44
2019-02-04T02:49:21.127Z,99268.89
2019-02-04T02:51:52.969Z,99266.56
2019-02-04T02:54:24.817Z,99265.72
2019-02-04T02:56:57.746Z,99268.00
2019-02-04T02:59:29.577Z,99264.46
2019-02-04T03:02:03.879Z,99270.09
2019-02-04T03:04:35.780Z,99272.00
2019-02-04T03:07:09.608Z,99281.17
2019-02-04T03:09:41.456Z,99284.17
2019-02-04T03:12:13.269Z,99284.22
2019-02-04T03:14:45.129Z,99283.41
2019-02-04T03:17:16.951Z,99289.48
2019-02-04T03:19:51.636Z,99294.63
2019-02-04T03:22:23.508Z,99291.66
2019-02-04T03:24:55.360Z,99284.83
2019-02-04T03:27:27.198Z,99294.67
2019-02-04T03:30:00.415Z,99303.27
2019-02-04T03:32:32.273Z,99302.45
2019-02-04T03:35:04.108Z,99306.36
2019-02-04T03:37:35.933Z,99298.27
2019-02-04T03:40:12.453Z,99307.33
2019-02-04T03:42:44.390Z,99304.86
2019-02-04T03:45:16.497Z,99305.75
2019-02-04T03:47:48.300Z,99303.23
2019-02-04T03:50:23.109Z,99303.68
2019-02-04T03:52:55.547Z,99305.78
2019-02-04T03:55:27.400Z,99312.19
2019-02-04T03:57:59.243Z,99315.72
2019-02-04T04:00:35.482Z,99323.48
2019-02-04T04:03:07.343Z,99330.30
2019-02-04T04:05:39.265Z,99333.73
2019-02-04T04:08:11.152Z,99333.50
2019-02-04T04:10:42.947Z,99336.19
2019-02-04T04:13:14.824Z,99330.29
2019-02-04T04:15:47.032Z,99323.95
2019-02-04T04:18:18.860Z,99327.45
2019-02-04T04:20:53.460Z,99327.55
2019-02-04T04:23:25.295Z,99330.97
2019-02-04T04:25:57.153Z,99340.84
2019-02-04T04:28:28.982Z,99337.84
2019-02-04T04:31:01.146Z,99336.16
2019-02-04T04:33:32.982Z,99330.60
2019-02-04T04:36:04.832Z,99328.84
2019-02-04T04:38:36.667Z,99333.17
2019-02-04T04:41:08.492Z,99333.23
2019-02-04T04:43:40.300Z,99326.75
2019-02-04T04:46:12.282Z,99325.03
2019-02-04T04:48:44.079Z,99331.93
2019-02-04T04:51:16.239Z,99332.73
2019-02-04T04:53:48.117Z,99329.34
2019-02-04T04:56:19.966Z,99335.00
2019-02-04T04:58:51.820Z,99344.87
2019-02-04T05:01:23.655Z,99345.78
2019-02-04T05:03:55.764Z,99343.72
2019-02-04T05:06:27.583Z,99348.06
2019-02-04T05:08:59.442Z,99340.39
2019-02-04T05:11:31.273Z,99348.13
2019-02-04T05:14:03.112Z,99355.01
2019-02-04T05:16:36.555Z,99359.73
2019-02-04T05:19:08.372Z,99355.01
2019-02-04T05:21:41.716Z,99351.20
2019-02-04T05:24:13.571Z,99355.09
2019-02-04T05:26:45.756Z,99354.73
2019-02-04T05:29:17.599Z,99356.39
2019-02-04T05:31:49.430Z,99356.42
2019-02-04T05:34:21.260Z,99343.24
2019-02-04T05:36:53.092Z,99348.41
2019-02-04T05:39:25.304Z,99341.99
2019-02-04T05:41:57.111Z,99329.58
2019-02-04T05:44:28.957Z,99331.72
2019-02-04T05:47:01.846Z,99326.94
2019-02-04T05:49:33.650Z,99332.58
2019-02-04T05:52:05.548Z,99338.14
2019-02-04T05:54:39.885Z,99332.61
2019-02-04T05:57:11.732Z,99337.75
2019-02-04T05:59:43.552Z,99344.20
2019-02-04T06:02:20.593Z,99352.70
2019-02-04T06:04:53.869Z,99351.88
2019-02-04T06:07:25.719Z,99352.37
2019-02-04T06:09:57.563Z,99356.69
2019-02-04T06:12:29.407Z,99363.56
2019-02-04T06:15:01.273Z,99355.93
2019-02-04T06:17:34.311Z,99364.55
2019-02-04T06:20:09.352Z,99362.03
2019-02-04T06:22:41.194Z,99366.30
2019-02-04T06:25:15.158Z,99361.63
2019-02-04T06:27:49.767Z,99365.92
2019-02-04T06:30:21.796Z,99366.38
2019-02-04T06:32:54.737Z,99366.38
2019-02-04T06:35:28.292Z,99367.33
2019-02-04T06:38:00.108Z,99375.56
2019-02-04T06:40:31.949Z,99377.66
2019-02-04T06:43:03.849Z,99378.97
2019-02-04T06:45:35.686Z,99382.00
2019-02-04T06:48:09.931Z,99380.74
2019-02-04T06:50:41.765Z,99389.28
2019-02-04T06:53:13.626Z,99393.95
2019-02-04T06:55:45.472Z,99399.08
2019-02-04T06:58:17.315Z,99399.55
2019-02-04T07:00:49.340Z,99403.41
2019-02-04T07:03:21.155Z,99408.11
2019-02-04T07:05:52.988Z,99414.14
2019-02-04T07:08:24.802Z,99414.53
2019-02-04T07:10:59.156Z,99408.58
2019-02-04T07:13:31.009Z,99409.02
2019-02-04T07:16:02.866Z,99411.58
2019-02-04T07:18:34.662Z,99413.69
2019-02-04T07:21:06.524Z,99412.41
2019-02-04T07:23:39.417Z,99410.70
2019-02-04T07:26:11.290Z,99411.55
2019-02-04T07:28:44.582Z,99406.42
2019-02-04T07:31:16.453Z,99407.69
2019-02-04T07:33:48.283Z,99408.48
2019-02-04T07:36:20.104Z,99401.59
2019-02-04T07:38:51.920Z,99401.06
2019-02-04T07:41:25.064Z,99396.27
2019-02-04T07:44:01.490Z,99407.59
2019-02-04T07:46:37.115Z,99406.83
2019-02-04T07:49:10.529Z,99404.05
2019-02-04T07:51:44.748Z,99401.59
2019-02-04T07:54:17.727Z,99403.84
2019-02-04T07:56:52.362Z,99408.67
2019-02-04T07:59:24.211Z,99417.03
2019-02-04T08:01:56.022Z,99416.96
2019-02-04T08:04:29.639Z,99422.32
2019-02-04T08:07:01.476Z,99423.38
2019-02-04T08:09:36.703Z,99429.72
2019-02-04T08:12:14.164Z,99428.25
2019-02-04T08:14:46.031Z,99415.11
2019-02-04T08:17:20.253Z,99420.58
2019-02-04T08:19:55.921Z,99413.81
2019-02-04T08:22:28.885Z,99403.69
2019-02-04T08:25:00.694Z,99406.06
2019-02-04T08:27:36.610Z,99399.55
2019-02-04T08:30:19.303Z,99402.88
2019-02-04T08:32:51.195Z,99409.86
2019-02-04T08:35:23.034Z,99407.80
2019-02-04T08:37:56.434Z,99405.84
2019-02-04T08:40:31.341Z,99404.80
2019-02-04T08:43:03.545Z,99406.27
2019-02-04T08:45:36.331Z,99407.77
2019-02-04T08:48:09.893Z,99410.22
2019-02-04T08:50:41.691Z,99409.59
2019-02-04T08:53:13.574Z,99419.16
2019-02-04T08:55:45.436Z,99424.88
2019-02-04T08:58:17.300Z,99422.71
2019-02-04T09:00:53.011Z,99422.95
2019-02-04T09:03:27.630Z,99424.04
2019-02-04T09:05:59.847Z,99430.17
2019-02-04T09:08:33.192Z,99428.29
2019-02-04T09:11:06.313Z,99432.05
2019-02-04T09:13:38.328Z,99430.23
2019-02-04T09:16:13.894Z,99436.55
2019-02-04T09:18:45.815Z,99426.32
2019-02-04T09:21:19.576Z,99428.30
2019-02-04T09:23:51.400Z,99429.59
2019-02-04T09:26:23.254Z,99425.87
2019-02-04T09:28:59.777Z,99419.70
2019-02-04T09:31:33.414Z,99425.59
2019-02-04T09:34:06.731Z,99428.77
2019-02-04T09:36:40.976Z,99423.27
2019-02-04T09:39:12.917Z,99428.47
2019-02-04T09:41:48.791Z,99432.20
2019-02-04T09:44:20.635Z,99428.20
2019-02-04T09:46:52.467Z,99421.86
2019-02-04T09:49:24.319Z,99413.47
2019-02-04T09:51:57.918Z,99418.11
2019-02-04T09:54:32.723Z,99421.22
2019-02-04T09:57:04.583Z,99414.52
2019-02-04T09:59:39.605Z,99417.66
2019-02-04T10:02:12.464Z,99413.66
2019-02-04T10:04:44.296Z,99405.85
2019-02-04T10:07:16.141Z,99408.16
2019-02-04T10:09:50.577Z,99402.98
2019-02-04T10:12:28.843Z,99402.97
2019-02-04T10:15:01.270Z,99410.22
2019-02-04T10:17:34.761Z,99406.12
2019-02-04T10:20:09.583Z,99395.75
2019-02-04T10:22:44.224Z,99400.43
2019-02-04T10:25:21.527Z,99399.09
2019-02-04T10:27:56.989Z,99396.48
2019-02-04T10:30:28.616Z,99400.44
2019-02-04T10:33:00.210Z,99393.94
2019-02-04T10:35:32.940Z,99390.65
2019-02-04T10:38:08.071Z,99395.24
2019-02-04T10:40:42.327Z,99397.66
2019-02-04T10:43:16.591Z,99396.97
2019-02-04T10:45:48.128Z,99391.28
2019-02-04T10:48:22.842Z,99394.08
2019-02-04T10:50:54.530Z,99391.31
2019-02-04T10:53:28.181Z,99391.23
2019-02-04T10:55:59.877Z,99396.00
2019-02-04T10:58:31.824Z,99387.16
2019-02-04T11:01:03.685Z,99387.83
2019-02-04T11:03:43.345Z,99383.03
2019-02-04T11:06:17.804Z,99374.77
2019-02-04T11:08:49.885Z,99376.53
2019-02-04T11:11:26.048Z,99374.89
2019-02-04T11:13:59.321Z,99367.80
2019-02-04T11:16:31.832Z,99355.81
2019-02-04T11:19:03.458Z,99354.17
2019-02-04T11:21:35.054Z,99339.94
2019-02-04T11:24:08.965Z,99340.11
2019-02-04T11:26:42.138Z,99337.91
2019-02-04T11:29:13.838Z,99336.84
2019-02-04T11:31:45.651Z,99327.52
2019-02-04T11:34:20.944Z,99323.11
2019-02-04T11:36:55.186Z,99323.12
2019-02-04T11:39:27.859Z,99322.45
2019-02-04T11:42:05.143Z,99319.88
2019-02-04T11:44:39.413Z,99314.42
2019-02-04T11:47:12.491Z,99313.85
2019-02-04T11:49:45.411Z,99312.12
2019-02-04T11:52:18.306Z,99313.28
2019-02-04T11:54:52.164Z,99308.58
2019-02-04T11:57:28.676Z,99309.50
2019-02-04T12:00:02.750Z,99304.69
2019-02-04T12:02:34.992Z,99298.83
2019-02-04T12:05:15.468Z,99288.27
2019-02-04T12:07:49.087Z,99290.49
2019-02-04T12:10:25.858Z,99286.23
2019-02-04T12:12:57.420Z,99277.05
2019-02-04T12:15:29.175Z,99277.73
2019-02-04T12:18:00.755Z,99274.62
2019-02-04T12:20:34.434Z,99263.69
2019-02-04T12:23:10.627Z,99256.88
2019-02-04T12:25:42.569Z,99253.10
2019-02-04T12:28:14.213Z,99251.92
2019-02-04T12:30:46.063Z,99247.67
2019-02-04T12:33:17.647Z,99242.77
2019-02-04T12:35:53.993Z,99236.23
2019-02-04T12:38:25.567Z,99225.22
2019-02-04T12:41:03.128Z,99227.94
2019-02-04T12:43:34.667Z,99226.75
2019-02-04T12:46:07.389Z,99226.75
2019-02-04T12:48:39.608Z,99223.27
2019-02-04T12:51:11.173Z,99221.55
2019-02-04T12:53:47.295Z,99215.58
2019-02-04T12:56:23.269Z,99210.28
2019-02-04T12:58:57.382Z,99199.84
2019-02-04T13:01:28.951Z,99199.98
2019-02-04T13:04:04.033Z,99197.72
2019-02-04T13:06:36.916Z,99198.23
2019-02-04T13:09:11.442Z,99194.39
2019-02-04T13:11:47.646Z,99197.05
2019-02-04T13:14:19.193Z,99191.56
2019-02-04T13:16:50.903Z,99188.45
2019-02-04T13:19:25.416Z,99188.02
2019-02-04T13:22:03.295Z,99182.72
2019-02-04T13:24:38.626Z,99186.77
2019-02-04T13:27:12.075Z,99189.55
2019-02-04T13:29:45.106Z,99186.12
2019-02-04T13:32:20.968Z,99189.92
2019-02-04T13:34:52.109Z,99202.22
2019-02-04T13:37:23.672Z,99197.72
2019-02-04T13:39:56.479Z,99194.66
2019-02-04T13:42:29.677Z,99199.84
2019-02-04T13:45:03.920Z,99197.20
2019-02-04T13:47:39.771Z,99199.56
2019-02-04T13:50:12.118Z,99197.38
2019-02-04T13:52:43.824Z,99188.80
2019-02-04T13:55:20.978Z,99188.69
2019-02-04T13:57:52.585Z,99181.59
2019-02-04T14:00:27.202Z,99185.27
2019-02-04T14:03:01.795Z,99182.09
2019-02-04T14:05:35.771Z,99181.52
2019-02-04T14:08:08.790Z,99186.94
2019-02-04T14:10:46.229Z,99184.17
2019-02-04T14:13:22.039Z,99178.35
2019-02-04T14:15:56.856Z,99176.05
2019-02-04T14:18:31.527Z,99183.83
2019-02-04T14:21:03.075Z,99182.09
2019-02-04T14:23:34.688Z,99178.81
2019-02-04T14:26:13.741Z,99178.92
2019-02-04T14:28:45.249Z,99183.63
2019-02-04T14:31:18.697Z,99180.11
2019-02-04T14:33:52.161Z,99186.11
2019-02-04T14:36:24.821Z,99185.94
2019-02-04T14:38:58.043Z,99185.87
2019-02-04T14:41:34.383Z,99180.69
2019-02-04T14:44:51.250Z,99175.33
2019-02-04T14:48:05.786Z,99165.06
2019-02-04T14:51:18.127Z,99163.53
2019-02-04T14:54:48.972Z,99169.97
2019-02-04T14:57:57.514Z,99167.89
2019-02-04T15:01:20.065Z,99164.55
2019-02-04T15:04:47.361Z,99163.77
2019-02-04T15:08:48.295Z,99161.77
2019-02-04T15:11:47.633Z,99159.12
2019-02-04T15:15:13.089Z,99158.14
2019-02-04T15:18:36.195Z,99155.60
2019-02-04T15:21:43.181Z,99159.45
2019-02-04T15:24:59.460Z,99151.36
2019-02-04T15:28:14.696Z,99148.94
2019-02-04T15:31:53.005Z,99151.59
2019-02-04T15:35:05.296Z,99149.99
2019-02-04T15:38:20.750Z,99160.36
2019-02-04T15:41:33.591Z,99160.67
2019-02-04T15:44:25.023Z,99160.41
2019-02-04T15:47:48.351Z,99163.31
2019-02-04T15:51:13.111Z,99165.38
2019-02-04T15:53:44.622Z,99166.88
2019-02-04T15:56:16.391Z,99166.31
2019-02-04T15:58:49.141Z,99162.58
2019-02-04T16:01:22.246Z,99162.30
2019-02-04T16:03:54.987Z,99166.03
2019-02-04T16:06:29.899Z,99161.82
2019-02-04T16:09:02.851Z,99161.09
2019-02-04T16:11:38.507Z,99155.77
2019-02-04T16:14:10.114Z,99155.86
2019-02-04T16:16:42.118Z,99159.42
2019-02-04T16:19:15.948Z,99155.18
2019-02-04T16:21:47.803Z,99146.87
2019-02-04T16:24:21.887Z,99150.90
2019-02-04T16:26:55.562Z,99149.38
2019-02-04T16:29:27.242Z,99149.47
2019-02-04T16:31:59.153Z,99150.16
2019-02-04T16:34:33.062Z,99151.02
2019-02-04T16:37:06.793Z,99155.19
2019-02-04T16:39:38.357Z,99149.70
2019-02-04T16:42:10.583Z,99152.09
2019-02-04T16:44:46.627Z,99155.00
2019-02-04T16:47:22.711Z,99158.20
2019-02-04T16:50:03.042Z,99156.61
2019-02-04T16:52:38.865Z,99150.48
2019-02-04T16:55:09.738Z,99151.51
2019-02-04T16:57:41.603Z,99160.42
2019-02-04T17:00:17.989Z,99162.20
2019-02-04T17:02:50.301Z,99163.08
2019-02-04T17:05:23.140Z,99164.95
2019-02-04T17:07:55.487Z,99163.44
2019-02-04T17:10:28.678Z,99163.13
2019-02-04T17:13:02.188Z,99160.47
2019-02-04T17:15:35.130Z,99155.95
2019-02-04T17:18:07.075Z,99158.16
2019-02-04T17:20:38.927Z,99161.19
2019-02-04T17:23:21.716Z,99155.16
2019-02-04T17:25:44.381Z,99156.06
2019-02-04T17:28:16.238Z,99159.02
2019-02-04T17:30:48.130Z,99167.33
2019-02-04T17:33:19.982Z,99168.58
2019-02-04T17:35:53.966Z,99171.57
2019-02-04T17:38:26.204Z,99168.58
2019-02-04T17:40:58.101Z,99174.56
2019-02-04T17:43:29.934Z,99171.27
2019-02-04T17:46:01.892Z,99174.47
2019-02-04T17:48:36.511Z,99181.47
2019-02-04T17:51:10.184Z,99181.52
2019-02-04T17:53:43.826Z,99180.67
2019-02-04T17:56:17.500Z,99181.55
2019-02-04T17:58:52.326Z,99177.81
2019-02-04T18:01:24.242Z,99176.59
2019-02-04T18:03:56.085Z,99177.25
2019-02-04T18:06:31.672Z,99182.95
2019-02-04T18:09:08.552Z,99168.89
2019-02-04T18:11:42.979Z,99174.52
2019-02-04T18:14:16.283Z,99179.70
2019-02-04T18:16:48.178Z,99186.12
2019-02-04T18:19:26.220Z,99182.28
2019-02-04T18:22:03.004Z,99183.58
2019-02-04T18:24:34.856Z,99185.45
2019-02-04T18:27:07.138Z,99185.41
2019-02-04T18:29:41.061Z,99194.43
2019-02-04T18:32:15.664Z,99189.70
2019-02-04T18:34:49.043Z,99188.89
2019-02-04T18:37:22.531Z,99187.76
2019-02-04T18:39:57.132Z,99188.95
2019-02-04T18:42:30.610Z,99190.69
2019-02-04T18:45:05.464Z,99193.27
2019-02-04T18:47:39.615Z,99184.31
2019-02-04T18:50:13.540Z,99188.44
2019-02-04T18:52:50.351Z,99189.81
2019-02-04T18:55:29.535Z,99184.45
2019-02-04T18:58:06.077Z,99183.62
2019-02-04T19:00:37.926Z,99182.36
2019-02-04T19:03:17.479Z,99178.56
2019-02-04T19:05:46.275Z,99185.42
2019-02-04T19:08:18.175Z,99188.92
2019-02-04T19:10:51.107Z,99191.80
2019-02-04T19:13:35.286Z,99194.88
2019-02-04T19:16:02.975Z,99193.59
2019-02-04T19:18:34.981Z,99196.52
2019-02-04T19:21:06.904Z,99194.01
2019-02-04T19:23:41.564Z,99191.95
2019-02-04T19:26:15.070Z,99190.69
2019-02-04T19:28:50.809Z,99191.08
2019-02-04T19:31:30.291Z,99198.41
2019-02-04T19:34:02.184Z,99193.64
2019-02-04T19:36:35.559Z,99196.67
2019-02-04T19:39:12.002Z,99198.80
2019-02-04T19:41:48.309Z,99203.16
2019-02-04T19:44:21.668Z,99197.62
2019-02-04T19:46:55.615Z,99198.08
2019-02-04T19:49:28.551Z,99203.16
2019-02-04T19:52:02.838Z,99203.53
2019-02-04T19:54:34.764Z,99205.56
2019-02-04T19:57:10.048Z,99205.50
2019-02-04T19:59:41.910Z,99204.16
2019-02-04T20:02:20.107Z,99198.95
2019-02-04T20:04:52.008Z,99198.91
2019-02-04T20:07:24.177Z,99198.02
2019-02-04T20:09:56.461Z,99199.39
2019-02-04T20:12:28.371Z,99203.23
2019-02-04T20:15:01.864Z,99199.39
2019-02-04T20:17:33.856Z,99207.52
2019-02-04T20:20:07.501Z,99207.93
2019-02-04T20:22:42.211Z,99210.89
2019-02-04T20:25:25.676Z,99213.44
2019-02-04T20:27:58.122Z,99210.02
2019-02-04T20:30:45.271Z,99209.99
2019-02-04T20:33:17.457Z,99209.57
2019-02-04T20:35:50.746Z,99203.62
2019-02-04T20:38:27.208Z,99205.80
2019-02-04T20:41:00.884Z,99213.46
2019-02-04T20:43:34.406Z,99210.89
2019-02-04T20:46:06.540Z,99207.89
2019-02-04T20:48:39.822Z,99207.00
2019-02-04T20:51:12.045Z,99209.13
2019-02-04T20:53:51.500Z,99218.05
2019-02-04T20:56:28.704Z,99213.70
2019-02-04T20:59:00.575Z,99217.03
2019-02-04T21:01:38.040Z,99218.23
2019-02-04T21:04:09.910Z,99221.94
2019-02-04T21:06:41.842Z,99227.09
2019-02-04T21:09:22.988Z,99231.80
2019-02-04T21:11:59.364Z,99227.30
2019-02-04T21:14:32.319Z,99231.76
2019-02-04T21:17:04.222Z,99232.96
2019-02-04T21:19:36.091Z,99233.66
2019-02-04T21:22:08.286Z,99237.48
2019-02-04T21:24:42.997Z,99242.22
2019-02-04T21:27:16.555Z,99237.97
2019-02-04T21:29:51.353Z,99233.66
2019-02-04T21:32:23.705Z,99231.95
2019-02-04T21:34:57.181Z,99224.34
2019-02-04T21:37:30.113Z,99229.05
2019-02-04T21:40:07.245Z,99216.56
2019-02-04T21:42:40.826Z,99217.88
2019-02-04T21:45:17.822Z,99224.34
2019-02-04T21:47:52.311Z,99218.04
2019-02-04T21:50:28.340Z,99216.34
2019-02-04T21:53:00.290Z,99218.41
2019-02-04T21:55:32.133Z,99209.14
2019-02-04T21:58:03.953Z,99212.61
2019-02-04T22:00:40.176Z,99210.91
2019-02-04T22:03:13.669Z,99215.49
2019-02-04T22:05:47.199Z,99212.42
2019-02-04T22:08:20.320Z,99217.41
2019-02-04T22:10:58.738Z,99212.96
2019-02-04T22:13:30.602Z,99210.80
2019-02-04T22:16:03.482Z,99207.77
2019-02-04T22:18:38.280Z,99214.61
2019-02-04T22:21:10.229Z,99215.00
2019-02-04T22:23:42.081Z,99214.20
2019-02-04T22:26:13.931Z,99210.39
2019-02-04T22:28:45.817Z,99204.52
2019-02-04T22:31:20.127Z,99216.83
2019-02-04T22:33:51.970Z,99223.56
2019-02-04T22:36:27.497Z,99215.73
2019-02-04T22:39:08.390Z,99219.20
2019-02-04T22:41:41.677Z,99219.20
2019-02-04T22:44:15.597Z,99219.23
2019-02-04T22:46:48.792Z,99218.27
2019-02-04T22:49:26.289Z,99223.53
2019-02-04T22:52:01.672Z,99221.49
2019-02-04T22:54:33.483Z,99232.11
2019-02-04T22:57:05.435Z,99229.84
2019-02-04T22:59:40.268Z,99230.27
2019-02-04T23:02:15.228Z,99232.84
2019-02-04T23:04:48.594Z,99227.30
2019-02-04T23:07:20.462Z,99229.43
2019-02-04T23:09:54.097Z,99228.14
2019-02-04T23:12:25.979Z,99215.75
2019-02-04T23:14:59.183Z,99204.28
2019-02-04T23:17:31.041Z,99210.69
2019-02-04T23:20:09.523Z,99217.14
2019-02-04T23:22:44.216Z,99221.08
2019-02-04T23:25:19.638Z,99228.39
2019-02-04T23:27:52.982Z,99227.56
2019-02-04T23:30:30.033Z,99233.39
2019-02-04T23:33:03.236Z,99242.34
2019-02-04T23:35:35.113Z,99234.66
2019-02-04T23:38:08.566Z,99227.35
2019-02-04T23:40:42.112Z,99230.38
2019-02-04T23:43:16.434Z,99228.25
2019-02-04T23:45:52.536Z,99229.90
2019-02-04T23:48:24.779Z,99224.21
2019-02-04T23:50:56.615Z,99218.27
2019-02-04T23:53:28.461Z,99224.23
2019-02-04T23:56:02.980Z,99218.70
2019-02-04T23:58:34.819Z,99219.59
